Big Bear Station Historical Data
Daily Summary for February 18, 2017 Units:  English    Metric   Both
Next Day »
Daily Weekly Monthly Yearly Custom

Warning: Division by zero in /home/actonast/www/www/weather/wxbb.php on line 1319
  High: Low: Average:
Temperature: 42.3 °F 29.8 °F 33.4 °F
Dew Point: 35.3 °F 28.8 °F 31.2 °F
Humidity: 98% 75% 92%
Wind Speed: 0.0mph 0.0mph 0mph
Wind Gust: -999.0mph - -
Wind - - North
Pressure: 29.80 in 29.58 in -
Precipitation: 0.25 in    
Historical Graphs
 
 
Tabular Data for February 18, 2017
Time Temperature Dew Point Pressure Wind Wind Speed Wind Gust Humidity Rainfall Rate (Hourly)
00:08 29.8 °F 28.8 °F 29.62 in Calm   -999.0 mph 96% 0 in
00:24 29.8 °F 28.8 °F 29.62 in Calm   -999.0 mph 96% 0 in
00:39 29.8 °F 28.8 °F 29.59 in Calm   -999.0 mph 96% 0 in
00:54 30.2 °F 29.2 °F 29.61 in Calm   -999.0 mph 96% 0 in
01:09 30.2 °F 29.2 °F 29.60 in Calm   -999.0 mph 96% 0 in
01:24 30.4 °F 29.4 °F 29.60 in Calm   -999.0 mph 96% 0 in
01:40 30.6 °F 29.9 °F 29.61 in Calm   -999.0 mph 97% 0 in
01:55 30.7 °F 29.9 °F 29.60 in Calm   -999.0 mph 97% 0 in
02:10 30.9 °F 30.1 °F 29.60 in Calm   -999.0 mph 97% 0 in
02:27 30.9 °F 30.1 °F 29.59 in Calm   -999.0 mph 97% 0 in
02:42 30.7 °F 29.9 °F 29.60 in Calm   -999.0 mph 97% 0 in
02:57 30.7 °F 29.9 °F 29.60 in Calm   -999.0 mph 97% 0 in
03:13 30.6 °F 29.9 °F 29.59 in Calm   -999.0 mph 97% 0 in
03:28 30.4 °F 29.7 °F 29.59 in Calm   -999.0 mph 97% 0 in
03:43 30.4 °F 29.7 °F 29.58 in Calm   -999.0 mph 97% 0 in
03:58 30.6 °F 29.9 °F 29.58 in Calm   -999.0 mph 97% 0 in
04:14 30.7 °F 30.2 °F 29.58 in Calm   -999.0 mph 98% 0 in
04:29 30.7 °F 30.2 °F 29.59 in Calm   -999.0 mph 98% 0 in
04:44 30.7 °F 30.2 °F 29.59 in Calm   -999.0 mph 98% 0 in
04:59 30.7 °F 30.2 °F 29.59 in Calm   -999.0 mph 98% 0 in
05:15 30.7 °F 30.2 °F 29.60 in Calm   -999.0 mph 98% 0 in
05:30 30.7 °F 30.2 °F 29.59 in Calm   -999.0 mph 98% 0 in
05:45 30.7 °F 30.2 °F 29.59 in Calm   -999.0 mph 98% 0 in
06:00 30.6 °F 30.1 °F 29.61 in Calm   -999.0 mph 98% 0 in
06:15 30.6 °F 30.1 °F 29.61 in Calm   -999.0 mph 98% 0 in
06:30 30.6 °F 30.1 °F 29.61 in Calm   -999.0 mph 98% 0 in
06:46 30.6 °F 30.1 °F 29.62 in Calm   -999.0 mph 98% 0 in
07:01 30.6 °F 30.1 °F 29.62 in Calm   -999.0 mph 98% 0 in
07:16 30.9 °F 30.1 °F 29.62 in Calm   -999.0 mph 97% 0 in
07:31 31.3 °F 30.5 °F 29.62 in Calm   -999.0 mph 97% 0 in
07:47 31.8 °F 30.8 °F 29.62 in Calm   -999.0 mph 96% 0 in
08:02 32.4 °F 30.9 °F 29.63 in Calm   -999.0 mph 94% 0 in
08:17 32.9 °F 31.1 °F 29.63 in Calm   -999.0 mph 93% 0 in
08:32 33.8 °F 31.5 °F 29.64 in Calm   -999.0 mph 91% 0 in
08:47 33.4 °F 31.3 °F 29.64 in Calm   -999.0 mph 92% 0 in
09:02 34.9 °F 32.0 °F 29.65 in Calm   -999.0 mph 89% 0 in
09:18 36.3 °F 31.9 °F 29.65 in Calm   -999.0 mph 84% 0 in
09:33 36.1 °F 32.0 °F 29.66 in Calm   -999.0 mph 85% 0 in
09:48 36.1 °F 32.3 °F 29.66 in Calm   -999.0 mph 86% 0 in
10:03 35.6 °F 31.8 °F 29.66 in Calm   -999.0 mph 86% 0 in
10:18 36.7 °F 32.6 °F 29.66 in Calm   -999.0 mph 85% 0 in
10:34 37.8 °F 33.1 °F 29.66 in Calm   -999.0 mph 83% 0 in
10:49 39.2 °F 33.9 °F 29.65 in Calm   -999.0 mph 81% 0 in
11:04 40.8 °F 34.5 °F 29.65 in Calm   -999.0 mph 78% 0 in
11:19 42.3 °F 35.3 °F 29.66 in Calm   -999.0 mph 76% 0 in
11:35 39.9 °F 33.6 °F 29.66 in Calm   -999.0 mph 78% 0 in
11:50 39.6 °F 33.6 °F 29.66 in Calm   -999.0 mph 79% 0 in
12:05 37.8 °F 32.8 °F 29.66 in Calm   -999.0 mph 82% 0 in
12:20 39.7 °F 34.0 °F 29.65 in Calm   -999.0 mph 80% 0 in
12:35 41.2 °F 34.9 °F 29.65 in Calm   -999.0 mph 78% 0 in
13:06 40.5 °F 34.2 °F 29.64 in Calm   -999.0 mph 78% 0 in
13:21 41.5 °F 34.2 °F 29.64 in Calm   -999.0 mph 75% 0 in
13:36 42.1 °F 34.7 °F 29.64 in Calm   -999.0 mph 75% 0 in
13:51 39.9 °F 33.6 °F 29.65 in Calm   -999.0 mph 78% 0 in
14:07 38.1 °F 33.1 °F 29.66 in Calm   -999.0 mph 82% 0 in
14:22 37.0 °F 32.6 °F 29.66 in Calm   -999.0 mph 84% 0 in
14:37 35.4 °F 31.9 °F 29.66 in Calm   -999.0 mph 87% 0 in
14:52 36.1 °F 32.6 °F 29.66 in Calm   -999.0 mph 87% 0 in
15:07 37.0 °F 32.9 °F 29.67 in Calm   -999.0 mph 85% 0 in
15:23 36.1 °F 32.3 °F 29.67 in Calm   -999.0 mph 86% 0 in
15:38 36.5 °F 32.7 °F 29.67 in Calm   -999.0 mph 86% 0 in
15:54 36.5 °F 32.7 °F 29.67 in Calm   -999.0 mph 86% 0 in
16:09 35.4 °F 31.6 °F 29.68 in Calm   -999.0 mph 86% 0 in
16:25 34.3 °F 31.4 °F 29.68 in Calm   -999.0 mph 89% 0 in
16:40 34.0 °F 31.4 °F 29.68 in Calm   -999.0 mph 90% 0 in
16:55 34.0 °F 31.4 °F 29.69 in Calm   -999.0 mph 90% 0 in
17:11 33.6 °F 31.3 °F 29.69 in Calm   -999.0 mph 91% 0 in
17:26 33.3 °F 31.2 °F 29.69 in Calm   -999.0 mph 92% 0 in
17:41 32.9 °F 30.8 °F 29.70 in Calm   -999.0 mph 92% 0 in
17:57 32.7 °F 30.9 °F 29.70 in Calm   -999.0 mph 93% 0 in
18:12 32.5 °F 30.7 °F 29.70 in Calm   -999.0 mph 93% 0 in
18:27 32.5 °F 30.7 °F 29.71 in Calm   -999.0 mph 93% 0 in
18:42 32.5 °F 30.2 °F 29.72 in Calm   -999.0 mph 91% 0 in
18:57 32.5 °F 30.4 °F 29.72 in Calm   -999.0 mph 92% 0 in
19:13 32.5 °F 30.7 °F 29.72 in Calm   -999.0 mph 93% 0 in
19:28 32.0 °F 30.2 °F 29.73 in Calm   -999.0 mph 93% 0 in
19:43 31.6 °F 30.1 °F 29.74 in Calm   -999.0 mph 94% 0 in
19:58 31.3 °F 30.0 °F 29.74 in Calm   -999.0 mph 95% 0 in
20:13 31.3 °F 30.0 °F 29.74 in Calm   -999.0 mph 95% 0 in
20:29 31.6 °F 30.6 °F 29.75 in Calm   -999.0 mph 96% 0 in
20:44 31.6 °F 30.6 °F 29.75 in Calm   -999.0 mph 96% 0 in
20:59 31.8 °F 31.0 °F 29.76 in Calm   -999.0 mph 97% 0 in
21:14 31.8 °F 31.0 °F 29.76 in Calm   -999.0 mph 97% 0 in
21:29 31.8 °F 31.3 °F 29.77 in Calm   -999.0 mph 98% 0 in
21:45 31.6 °F 31.1 °F 29.78 in Calm   -999.0 mph 98% 0 in
22:00 31.6 °F 31.1 °F 29.79 in Calm   -999.0 mph 98% 0 in
22:15 31.1 °F 30.6 °F 29.78 in Calm   -999.0 mph 98% 0 in
22:30 31.1 °F 30.6 °F 29.79 in Calm   -999.0 mph 98% 0 in
22:46 31.1 °F 30.6 °F 29.79 in Calm   -999.0 mph 98% 0 in
23:01 31.1 °F 30.6 °F 29.79 in Calm   -999.0 mph 98% 0 in
23:16 31.1 °F 30.6 °F 29.80 in Calm   -999.0 mph 98% 0 in
23:31 31.1 °F 30.6 °F 29.80 in Calm   -999.0 mph 98% 0 in
23:46 31.1 °F 30.6 °F 29.80 in Calm   -999.0 mph 98% 0 in
Big Bear CA Weather